sensor_id;sensor_type;location;lat;lon;timestamp;P1;durP1;ratioP1;P2;durP2;ratioP2
22713;SDS011;11524;50.846;4.326;2023-06-10T00:00:37;5.55;;;4.90;;
22713;SDS011;11524;50.846;4.326;2023-06-10T00:03:04;5.80;;;5.30;;
22713;SDS011;11524;50.846;4.326;2023-06-10T00:05:29;5.60;;;5.10;;
22713;SDS011;11524;50.846;4.326;2023-06-10T00:07:56;5.22;;;4.57;;
22713;SDS011;11524;50.846;4.326;2023-06-10T00:10:22;5.82;;;4.55;;
22713;SDS011;11524;50.846;4.326;2023-06-10T00:12:50;7.05;;;5.00;;
22713;SDS011;11524;50.846;4.326;2023-06-10T00:15:16;5.32;;;4.88;;
22713;SDS011;11524;50.846;4.326;2023-06-10T00:17:42;6.88;;;5.32;;
22713;SDS011;11524;50.846;4.326;2023-06-10T00:20:08;5.50;;;4.97;;
22713;SDS011;11524;50.846;4.326;2023-06-10T00:22:36;5.38;;;4.88;;
22713;SDS011;11524;50.846;4.326;2023-06-10T00:25:05;5.40;;;4.90;;
22713;SDS011;11524;50.846;4.326;2023-06-10T00:27:31;5.32;;;4.82;;
22713;SDS011;11524;50.846;4.326;2023-06-10T00:30:00;5.15;;;4.72;;
22713;SDS011;11524;50.846;4.326;2023-06-10T00:32:29;5.35;;;4.85;;
22713;SDS011;11524;50.846;4.326;2023-06-10T00:34:56;7.13;;;5.10;;
22713;SDS011;11524;50.846;4.326;2023-06-10T00:38:08;5.65;;;5.05;;
22713;SDS011;11524;50.846;4.326;2023-06-10T00:40:38;5.30;;;4.80;;
22713;SDS011;11524;50.846;4.326;2023-06-10T00:43:05;7.10;;;5.40;;
22713;SDS011;11524;50.846;4.326;2023-06-10T00:45:32;5.53;;;4.93;;
22713;SDS011;11524;50.846;4.326;2023-06-10T00:47:58;5.70;;;5.10;;
22713;SDS011;11524;50.846;4.326;2023-06-10T00:50:27;5.60;;;5.10;;
22713;SDS011;11524;50.846;4.326;2023-06-10T00:52:53;5.32;;;4.75;;
22713;SDS011;11524;50.846;4.326;2023-06-10T00:55:20;5.93;;;5.25;;
22713;SDS011;11524;50.846;4.326;2023-06-10T00:57:46;5.70;;;5.20;;
22713;SDS011;11524;50.846;4.326;2023-06-10T01:00:16;6.13;;;4.88;;
22713;SDS011;11524;50.846;4.326;2023-06-10T01:02:42;5.63;;;5.13;;
22713;SDS011;11524;50.846;4.326;2023-06-10T01:05:08;5.93;;;5.40;;
22713;SDS011;11524;50.846;4.326;2023-06-10T01:07:37;5.47;;;4.97;;
22713;SDS011;11524;50.846;4.326;2023-06-10T01:10:20;6.15;;;5.57;;
22713;SDS011;11524;50.846;4.326;2023-06-10T01:12:59;5.53;;;5.03;;
22713;SDS011;11524;50.846;4.326;2023-06-10T01:15:28;5.70;;;5.13;;
22713;SDS011;11524;50.846;4.326;2023-06-10T01:18:02;6.35;;;5.72;;
22713;SDS011;11524;50.846;4.326;2023-06-10T01:20:35;5.70;;;5.10;;
22713;SDS011;11524;50.846;4.326;2023-06-10T01:23:05;6.18;;;5.57;;
22713;SDS011;11524;50.846;4.326;2023-06-10T01:28:15;6.32;;;5.70;;
22713;SDS011;11524;50.846;4.326;2023-06-10T01:31:25;6.53;;;5.82;;
22713;SDS011;11524;50.846;4.326;2023-06-10T01:34:01;5.85;;;5.35;;
22713;SDS011;11524;50.846;4.326;2023-06-10T01:36:31;6.38;;;5.78;;
22713;SDS011;11524;50.846;4.326;2023-06-10T01:38:58;10.70;;;5.32;;
22713;SDS011;11524;50.846;4.326;2023-06-10T01:41:28;6.03;;;5.53;;
22713;SDS011;11524;50.846;4.326;2023-06-10T01:43:54;6.57;;;5.60;;
22713;SDS011;11524;50.846;4.326;2023-06-10T01:46:20;7.68;;;5.80;;
22713;SDS011;11524;50.846;4.326;2023-06-10T01:48:46;7.30;;;5.63;;
22713;SDS011;11524;50.846;4.326;2023-06-10T01:51:12;6.10;;;5.50;;
22713;SDS011;11524;50.846;4.326;2023-06-10T01:53:37;6.80;;;5.93;;
22713;SDS011;11524;50.846;4.326;2023-06-10T01:56:03;6.53;;;5.82;;
22713;SDS011;11524;50.846;4.326;2023-06-10T01:58:29;6.30;;;5.70;;
22713;SDS011;11524;50.846;4.326;2023-06-10T02:00:54;6.10;;;5.50;;
22713;SDS011;11524;50.846;4.326;2023-06-10T02:03:20;6.60;;;6.00;;
22713;SDS011;11524;50.846;4.326;2023-06-10T02:05:45;6.20;;;5.60;;
22713;SDS011;11524;50.846;4.326;2023-06-10T02:08:11;6.80;;;6.00;;
22713;SDS011;11524;50.846;4.326;2023-06-10T02:10:37;6.80;;;6.15;;
22713;SDS011;11524;50.846;4.326;2023-06-10T02:13:02;6.47;;;5.78;;
22713;SDS011;11524;50.846;4.326;2023-06-10T02:15:28;6.47;;;5.82;;
22713;SDS011;11524;50.846;4.326;2023-06-10T02:17:53;6.82;;;6.07;;
22713;SDS011;11524;50.846;4.326;2023-06-10T02:20:20;8.27;;;6.22;;
22713;SDS011;11524;50.846;4.326;2023-06-10T02:22:46;8.55;;;6.00;;
22713;SDS011;11524;50.846;4.326;2023-06-10T02:25:12;9.57;;;6.63;;
22713;SDS011;11524;50.846;4.326;2023-06-10T02:27:37;6.95;;;6.07;;
22713;SDS011;11524;50.846;4.326;2023-06-10T02:30:03;8.07;;;6.38;;
22713;SDS011;11524;50.846;4.326;2023-06-10T02:32:29;6.97;;;5.97;;
22713;SDS011;11524;50.846;4.326;2023-06-10T02:34:54;7.28;;;5.90;;
22713;SDS011;11524;50.846;4.326;2023-06-10T02:37:20;7.20;;;5.97;;
22713;SDS011;11524;50.846;4.326;2023-06-10T02:39:46;6.90;;;6.10;;
22713;SDS011;11524;50.846;4.326;2023-06-10T02:42:11;7.00;;;6.18;;
22713;SDS011;11524;50.846;4.326;2023-06-10T02:44:37;6.70;;;6.10;;
22713;SDS011;11524;50.846;4.326;2023-06-10T02:47:03;7.22;;;5.93;;
22713;SDS011;11524;50.846;4.326;2023-06-10T02:49:29;7.18;;;6.53;;
22713;SDS011;11524;50.846;4.326;2023-06-10T02:51:55;7.00;;;6.30;;
22713;SDS011;11524;50.846;4.326;2023-06-10T02:54:22;7.18;;;6.20;;
22713;SDS011;11524;50.846;4.326;2023-06-10T02:56:48;8.85;;;6.07;;
22713;SDS011;11524;50.846;4.326;2023-06-10T02:59:14;7.68;;;6.40;;
22713;SDS011;11524;50.846;4.326;2023-06-10T03:01:40;7.30;;;6.60;;
22713;SDS011;11524;50.846;4.326;2023-06-10T03:04:06;7.05;;;6.35;;
22713;SDS011;11524;50.846;4.326;2023-06-10T03:06:32;7.03;;;6.03;;
22713;SDS011;11524;50.846;4.326;2023-06-10T03:09:03;7.30;;;5.93;;
22713;SDS011;11524;50.846;4.326;2023-06-10T03:11:29;6.90;;;6.22;;
22713;SDS011;11524;50.846;4.326;2023-06-10T03:13:56;6.75;;;6.15;;
22713;SDS011;11524;50.846;4.326;2023-06-10T03:16:22;7.25;;;6.60;;
22713;SDS011;11524;50.846;4.326;2023-06-10T03:18:48;7.53;;;6.47;;
22713;SDS011;11524;50.846;4.326;2023-06-10T03:21:14;6.78;;;6.07;;
22713;SDS011;11524;50.846;4.326;2023-06-10T03:23:40;7.55;;;6.75;;
22713;SDS011;11524;50.846;4.326;2023-06-10T03:26:05;6.90;;;6.20;;
22713;SDS011;11524;50.846;4.326;2023-06-10T03:28:31;9.05;;;6.45;;
22713;SDS011;11524;50.846;4.326;2023-06-10T03:30:57;8.90;;;8.00;;
22713;SDS011;11524;50.846;4.326;2023-06-10T03:33:22;9.15;;;6.85;;
22713;SDS011;11524;50.846;4.326;2023-06-10T03:35:48;7.40;;;6.70;;
22713;SDS011;11524;50.846;4.326;2023-06-10T03:38:14;8.30;;;6.60;;
22713;SDS011;11524;50.846;4.326;2023-06-10T03:40:40;7.22;;;6.00;;
22713;SDS011;11524;50.846;4.326;2023-06-10T03:43:05;7.28;;;6.45;;
22713;SDS011;11524;50.846;4.326;2023-06-10T03:45:31;7.53;;;6.50;;
22713;SDS011;11524;50.846;4.326;2023-06-10T03:47:57;10.68;;;6.68;;
22713;SDS011;11524;50.846;4.326;2023-06-10T03:50:23;7.18;;;6.45;;
22713;SDS011;11524;50.846;4.326;2023-06-10T03:52:49;7.30;;;6.55;;
22713;SDS011;11524;50.846;4.326;2023-06-10T03:55:15;7.30;;;6.57;;
22713;SDS011;11524;50.846;4.326;2023-06-10T03:57:41;6.95;;;6.25;;
22713;SDS011;11524;50.846;4.326;2023-06-10T04:00:08;7.38;;;6.65;;
22713;SDS011;11524;50.846;4.326;2023-06-10T04:02:41;7.00;;;6.30;;
22713;SDS011;11524;50.846;4.326;2023-06-10T04:05:14;8.55;;;6.18;;
22713;SDS011;11524;50.846;4.326;2023-06-10T04:07:43;9.23;;;6.72;;
22713;SDS011;11524;50.846;4.326;2023-06-10T04:10:12;7.50;;;6.57;;
22713;SDS011;11524;50.846;4.326;2023-06-10T04:12:37;8.43;;;6.30;;
22713;SDS011;11524;50.846;4.326;2023-06-10T04:15:03;8.48;;;6.90;;
22713;SDS011;11524;50.846;4.326;2023-06-10T04:17:30;7.05;;;6.28;;
22713;SDS011;11524;50.846;4.326;2023-06-10T04:19:57;7.78;;;6.97;;
22713;SDS011;11524;50.846;4.326;2023-06-10T04:22:25;8.40;;;7.13;;
22713;SDS011;11524;50.846;4.326;2023-06-10T04:24:51;7.20;;;6.50;;
22713;SDS011;11524;50.846;4.326;2023-06-10T04:27:17;7.43;;;6.65;;
22713;SDS011;11524;50.846;4.326;2023-06-10T04:29:43;8.68;;;6.90;;
22713;SDS011;11524;50.846;4.326;2023-06-10T04:32:09;7.38;;;6.68;;
22713;SDS011;11524;50.846;4.326;2023-06-10T04:34:34;8.23;;;6.93;;
22713;SDS011;11524;50.846;4.326;2023-06-10T04:37:01;9.23;;;7.15;;
22713;SDS011;11524;50.846;4.326;2023-06-10T04:39:27;7.70;;;7.00;;
22713;SDS011;11524;50.846;4.326;2023-06-10T04:41:53;7.32;;;6.60;;
22713;SDS011;11524;50.846;4.326;2023-06-10T04:44:18;8.02;;;6.90;;
22713;SDS011;11524;50.846;4.326;2023-06-10T04:46:44;7.60;;;6.88;;
22713;SDS011;11524;50.846;4.326;2023-06-10T04:49:10;7.72;;;6.85;;
22713;SDS011;11524;50.846;4.326;2023-06-10T04:51:39;8.23;;;7.35;;
22713;SDS011;11524;50.846;4.326;2023-06-10T04:54:05;8.32;;;7.15;;
22713;SDS011;11524;50.846;4.326;2023-06-10T04:56:30;14.05;;;8.13;;
22713;SDS011;11524;50.846;4.326;2023-06-10T04:58:56;11.90;;;8.20;;
22713;SDS011;11524;50.846;4.326;2023-06-10T05:01:22;10.80;;;8.13;;
22713;SDS011;11524;50.846;4.326;2023-06-10T05:03:48;8.93;;;7.60;;
22713;SDS011;11524;50.846;4.326;2023-06-10T05:06:16;8.15;;;7.32;;
22713;SDS011;11524;50.846;4.326;2023-06-10T05:08:42;12.48;;;8.18;;
22713;SDS011;11524;50.846;4.326;2023-06-10T05:11:08;7.85;;;7.05;;
22713;SDS011;11524;50.846;4.326;2023-06-10T05:13:33;11.70;;;7.47;;
22713;SDS011;11524;50.846;4.326;2023-06-10T05:15:59;14.30;;;8.60;;
22713;SDS011;11524;50.846;4.326;2023-06-10T05:18:25;11.55;;;7.55;;
22713;SDS011;11524;50.846;4.326;2023-06-10T05:20:50;11.02;;;7.13;;
22713;SDS011;11524;50.846;4.326;2023-06-10T05:23:16;12.40;;;7.47;;
22713;SDS011;11524;50.846;4.326;2023-06-10T05:25:42;9.02;;;7.50;;
22713;SDS011;11524;50.846;4.326;2023-06-10T05:28:07;13.05;;;8.30;;
22713;SDS011;11524;50.846;4.326;2023-06-10T05:30:35;10.23;;;7.47;;
22713;SDS011;11524;50.846;4.326;2023-06-10T05:33:01;11.05;;;7.50;;
22713;SDS011;11524;50.846;4.326;2023-06-10T05:35:27;8.70;;;7.80;;
22713;SDS011;11524;50.846;4.326;2023-06-10T05:37:53;9.38;;;7.28;;
22713;SDS011;11524;50.846;4.326;2023-06-10T05:40:18;9.63;;;8.40;;
22713;SDS011;11524;50.846;4.326;2023-06-10T05:42:44;9.95;;;7.38;;
22713;SDS011;11524;50.846;4.326;2023-06-10T05:45:10;8.73;;;7.53;;
22713;SDS011;11524;50.846;4.326;2023-06-10T05:47:35;10.35;;;7.47;;
22713;SDS011;11524;50.846;4.326;2023-06-10T05:50:01;9.25;;;8.15;;
22713;SDS011;11524;50.846;4.326;2023-06-10T05:52:27;12.30;;;8.57;;
22713;SDS011;11524;50.846;4.326;2023-06-10T05:54:53;12.60;;;7.90;;
22713;SDS011;11524;50.846;4.326;2023-06-10T05:57:19;9.13;;;7.82;;
22713;SDS011;11524;50.846;4.326;2023-06-10T05:59:45;12.52;;;8.50;;
22713;SDS011;11524;50.846;4.326;2023-06-10T06:02:10;9.25;;;8.18;;
22713;SDS011;11524;50.846;4.326;2023-06-10T06:04:36;11.35;;;7.95;;
22713;SDS011;11524;50.846;4.326;2023-06-10T06:07:02;8.48;;;7.60;;
22713;SDS011;11524;50.846;4.326;2023-06-10T06:09:28;11.32;;;8.07;;
22713;SDS011;11524;50.846;4.326;2023-06-10T06:11:53;10.10;;;7.93;;
22713;SDS011;11524;50.846;4.326;2023-06-10T06:14:19;13.10;;;7.72;;
22713;SDS011;11524;50.846;4.326;2023-06-10T06:16:45;9.77;;;7.95;;
22713;SDS011;11524;50.846;4.326;2023-06-10T06:19:10;9.82;;;7.68;;
22713;SDS011;11524;50.846;4.326;2023-06-10T06:21:36;11.05;;;7.60;;
22713;SDS011;11524;50.846;4.326;2023-06-10T06:24:02;8.23;;;7.43;;
22713;SDS011;11524;50.846;4.326;2023-06-10T06:26:27;10.27;;;7.68;;
22713;SDS011;11524;50.846;4.326;2023-06-10T06:28:53;9.52;;;8.20;;
22713;SDS011;11524;50.846;4.326;2023-06-10T06:31:18;8.18;;;7.30;;
22713;SDS011;11524;50.846;4.326;2023-06-10T06:33:44;9.15;;;7.50;;
22713;SDS011;11524;50.846;4.326;2023-06-10T06:36:10;8.40;;;7.60;;
22713;SDS011;11524;50.846;4.326;2023-06-10T06:38:35;8.50;;;7.60;;
22713;SDS011;11524;50.846;4.326;2023-06-10T06:41:01;8.45;;;7.53;;
22713;SDS011;11524;50.846;4.326;2023-06-10T06:43:28;11.35;;;7.78;;
22713;SDS011;11524;50.846;4.326;2023-06-10T06:45:56;16.13;;;7.75;;
22713;SDS011;11524;50.846;4.326;2023-06-10T06:48:22;11.73;;;7.50;;
22713;SDS011;11524;50.846;4.326;2023-06-10T06:50:48;10.95;;;7.90;;
22713;SDS011;11524;50.846;4.326;2023-06-10T06:53:14;12.23;;;8.25;;
22713;SDS011;11524;50.846;4.326;2023-06-10T06:55:39;12.50;;;8.07;;
22713;SDS011;11524;50.846;4.326;2023-06-10T06:58:05;8.13;;;7.32;;
22713;SDS011;11524;50.846;4.326;2023-06-10T07:00:31;9.35;;;7.63;;
22713;SDS011;11524;50.846;4.326;2023-06-10T07:02:57;11.40;;;8.85;;
22713;SDS011;11524;50.846;4.326;2023-06-10T07:05:23;9.50;;;7.80;;
22713;SDS011;11524;50.846;4.326;2023-06-10T07:07:52;9.13;;;8.18;;
22713;SDS011;11524;50.846;4.326;2023-06-10T07:10:24;8.48;;;7.28;;
22713;SDS011;11524;50.846;4.326;2023-06-10T07:12:50;9.75;;;8.00;;
22713;SDS011;11524;50.846;4.326;2023-06-10T07:15:16;8.73;;;7.90;;
22713;SDS011;11524;50.846;4.326;2023-06-10T07:17:43;8.90;;;8.00;;
22713;SDS011;11524;50.846;4.326;2023-06-10T07:20:09;8.88;;;7.97;;
22713;SDS011;11524;50.846;4.326;2023-06-10T07:22:35;8.77;;;7.75;;
22713;SDS011;11524;50.846;4.326;2023-06-10T07:25:00;9.30;;;7.78;;
22713;SDS011;11524;50.846;4.326;2023-06-10T07:27:26;8.85;;;7.88;;
22713;SDS011;11524;50.846;4.326;2023-06-10T07:29:52;8.75;;;7.93;;
22713;SDS011;11524;50.846;4.326;2023-06-10T07:32:17;10.32;;;7.90;;
22713;SDS011;11524;50.846;4.326;2023-06-10T07:34:45;8.50;;;7.70;;
22713;SDS011;11524;50.846;4.326;2023-06-10T07:37:11;9.00;;;7.65;;
22713;SDS011;11524;50.846;4.326;2023-06-10T07:39:36;9.90;;;7.88;;
22713;SDS011;11524;50.846;4.326;2023-06-10T07:42:02;12.55;;;8.02;;
22713;SDS011;11524;50.846;4.326;2023-06-10T07:44:28;10.77;;;7.60;;
22713;SDS011;11524;50.846;4.326;2023-06-10T07:46:53;9.05;;;7.53;;
22713;SDS011;11524;50.846;4.326;2023-06-10T07:49:19;8.13;;;7.35;;
22713;SDS011;11524;50.846;4.326;2023-06-10T07:51:45;9.45;;;7.35;;
22713;SDS011;11524;50.846;4.326;2023-06-10T07:54:10;8.73;;;7.38;;
22713;SDS011;11524;50.846;4.326;2023-06-10T07:56:37;9.15;;;7.57;;
22713;SDS011;11524;50.846;4.326;2023-06-10T07:59:03;8.65;;;7.45;;
22713;SDS011;11524;50.846;4.326;2023-06-10T08:01:28;9.55;;;7.93;;
22713;SDS011;11524;50.846;4.326;2023-06-10T08:03:55;8.18;;;7.38;;
22713;SDS011;11524;50.846;4.326;2023-06-10T08:06:20;9.02;;;7.85;;
22713;SDS011;11524;50.846;4.326;2023-06-10T08:08:46;9.18;;;7.70;;
22713;SDS011;11524;50.846;4.326;2023-06-10T08:11:12;8.20;;;6.72;;
22713;SDS011;11524;50.846;4.326;2023-06-10T08:13:38;8.77;;;6.95;;
22713;SDS011;11524;50.846;4.326;2023-06-10T08:16:04;8.07;;;7.30;;
22713;SDS011;11524;50.846;4.326;2023-06-10T08:18:30;8.00;;;7.20;;
22713;SDS011;11524;50.846;4.326;2023-06-10T08:20:56;10.73;;;7.25;;
22713;SDS011;11524;50.846;4.326;2023-06-10T08:23:22;8.43;;;7.43;;
22713;SDS011;11524;50.846;4.326;2023-06-10T08:25:48;11.15;;;7.22;;
22713;SDS011;11524;50.846;4.326;2023-06-10T08:28:13;10.90;;;7.35;;
22713;SDS011;11524;50.846;4.326;2023-06-10T08:30:39;10.40;;;6.90;;
22713;SDS011;11524;50.846;4.326;2023-06-10T08:33:05;12.88;;;7.28;;
22713;SDS011;11524;50.846;4.326;2023-06-10T08:35:31;17.80;;;7.82;;
22713;SDS011;11524;50.846;4.326;2023-06-10T08:37:56;26.48;;;7.65;;
22713;SDS011;11524;50.846;4.326;2023-06-10T08:40:22;18.58;;;7.20;;
22713;SDS011;11524;50.846;4.326;2023-06-10T08:45:30;17.90;;;6.88;;
22713;SDS011;11524;50.846;4.326;2023-06-10T08:47:57;17.35;;;8.13;;
22713;SDS011;11524;50.846;4.326;2023-06-10T08:50:23;16.85;;;7.45;;
22713;SDS011;11524;50.846;4.326;2023-06-10T08:52:50;14.00;;;7.60;;
22713;SDS011;11524;50.846;4.326;2023-06-10T08:55:29;10.27;;;7.22;;
22713;SDS011;11524;50.846;4.326;2023-06-10T08:57:57;14.90;;;7.25;;
22713;SDS011;11524;50.846;4.326;2023-06-10T09:00:26;11.35;;;7.65;;
22713;SDS011;11524;50.846;4.326;2023-06-10T09:02:52;13.73;;;8.02;;
22713;SDS011;11524;50.846;4.326;2023-06-10T09:05:18;12.75;;;7.05;;
22713;SDS011;11524;50.846;4.326;2023-06-10T09:07:45;18.65;;;8.05;;
22713;SDS011;11524;50.846;4.326;2023-06-10T09:10:12;10.10;;;7.10;;
22713;SDS011;11524;50.846;4.326;2023-06-10T09:12:38;10.82;;;7.30;;
22713;SDS011;11524;50.846;4.326;2023-06-10T09:15:04;10.80;;;7.07;;
22713;SDS011;11524;50.846;4.326;2023-06-10T09:17:30;10.70;;;7.38;;
22713;SDS011;11524;50.846;4.326;2023-06-10T09:19:56;10.35;;;7.38;;
22713;SDS011;11524;50.846;4.326;2023-06-10T09:22:22;20.33;;;8.63;;
22713;SDS011;11524;50.846;4.326;2023-06-10T09:24:49;9.90;;;6.97;;
22713;SDS011;11524;50.846;4.326;2023-06-10T09:27:14;12.60;;;7.80;;
22713;SDS011;11524;50.846;4.326;2023-06-10T09:29:47;8.80;;;7.35;;
22713;SDS011;11524;50.846;4.326;2023-06-10T09:32:13;10.47;;;7.37;;
22713;SDS011;11524;50.846;4.326;2023-06-10T09:34:39;8.07;;;6.72;;
22713;SDS011;11524;50.846;4.326;2023-06-10T09:37:05;12.32;;;7.15;;
22713;SDS011;11524;50.846;4.326;2023-06-10T09:39:31;7.50;;;6.80;;
22713;SDS011;11524;50.846;4.326;2023-06-10T09:41:56;8.63;;;7.05;;
22713;SDS011;11524;50.846;4.326;2023-06-10T09:44:22;9.07;;;6.75;;
22713;SDS011;11524;50.846;4.326;2023-06-10T09:46:50;8.20;;;7.35;;
22713;SDS011;11524;50.846;4.326;2023-06-10T09:49:16;9.52;;;6.82;;
22713;SDS011;11524;50.846;4.326;2023-06-10T09:51:49;8.65;;;6.82;;
22713;SDS011;11524;50.846;4.326;2023-06-10T09:56:41;8.15;;;6.72;;
22713;SDS011;11524;50.846;4.326;2023-06-10T09:59:07;9.30;;;7.13;;
22713;SDS011;11524;50.846;4.326;2023-06-10T10:01:34;7.80;;;7.10;;
22713;SDS011;11524;50.846;4.326;2023-06-10T10:03:59;7.88;;;6.80;;
22713;SDS011;11524;50.846;4.326;2023-06-10T10:06:26;9.85;;;6.90;;
22713;SDS011;11524;50.846;4.326;2023-06-10T10:08:53;9.07;;;7.00;;
22713;SDS011;11524;50.846;4.326;2023-06-10T10:11:20;7.35;;;6.65;;
22713;SDS011;11524;50.846;4.326;2023-06-10T10:13:51;7.55;;;6.57;;
22713;SDS011;11524;50.846;4.326;2023-06-10T10:16:19;7.47;;;6.30;;
22713;SDS011;11524;50.846;4.326;2023-06-10T10:18:48;7.97;;;6.40;;
22713;SDS011;11524;50.846;4.326;2023-06-10T10:21:22;7.03;;;6.32;;
22713;SDS011;11524;50.846;4.326;2023-06-10T10:23:55;7.10;;;6.50;;
22713;SDS011;11524;50.846;4.326;2023-06-10T10:26:33;9.32;;;6.72;;
22713;SDS011;11524;50.846;4.326;2023-06-10T10:31:41;8.23;;;6.82;;
22713;SDS011;11524;50.846;4.326;2023-06-10T10:34:11;8.38;;;6.70;;
22713;SDS011;11524;50.846;4.326;2023-06-10T10:36:40;7.25;;;6.50;;
22713;SDS011;11524;50.846;4.326;2023-06-10T10:39:06;8.40;;;6.90;;
22713;SDS011;11524;50.846;4.326;2023-06-10T10:41:32;7.80;;;6.55;;
22713;SDS011;11524;50.846;4.326;2023-06-10T10:44:01;7.95;;;6.40;;
22713;SDS011;11524;50.846;4.326;2023-06-10T10:46:30;8.18;;;7.07;;
22713;SDS011;11524;50.846;4.326;2023-06-10T10:49:06;7.63;;;6.63;;
22713;SDS011;11524;50.846;4.326;2023-06-10T10:51:35;8.05;;;6.65;;
22713;SDS011;11524;50.846;4.326;2023-06-10T10:54:14;8.35;;;6.45;;
22713;SDS011;11524;50.846;4.326;2023-06-10T10:57:28;8.10;;;6.70;;
22713;SDS011;11524;50.846;4.326;2023-06-10T10:59:54;7.13;;;6.53;;
22713;SDS011;11524;50.846;4.326;2023-06-10T11:02:38;7.13;;;6.43;;
22713;SDS011;11524;50.846;4.326;2023-06-10T11:05:10;6.10;;;5.50;;
22713;SDS011;11524;50.846;4.326;2023-06-10T11:07:40;7.30;;;6.60;;
22713;SDS011;11524;50.846;4.326;2023-06-10T11:10:12;9.77;;;6.95;;
22713;SDS011;11524;50.846;4.326;2023-06-10T11:12:42;7.72;;;6.55;;
22713;SDS011;11524;50.846;4.326;2023-06-10T11:15:18;6.93;;;6.32;;
22713;SDS011;11524;50.846;4.326;2023-06-10T11:28:38;6.97;;;6.28;;
22713;SDS011;11524;50.846;4.326;2023-06-10T11:31:04;8.90;;;6.28;;
22713;SDS011;11524;50.846;4.326;2023-06-10T11:33:31;7.40;;;6.50;;
22713;SDS011;11524;50.846;4.326;2023-06-10T11:35:57;7.32;;;6.57;;
22713;SDS011;11524;50.846;4.326;2023-06-10T11:38:23;7.55;;;6.85;;
22713;SDS011;11524;50.846;4.326;2023-06-10T11:40:49;6.82;;;6.13;;
22713;SDS011;11524;50.846;4.326;2023-06-10T11:43:16;9.45;;;6.38;;
22713;SDS011;11524;50.846;4.326;2023-06-10T11:45:42;7.03;;;6.32;;
22713;SDS011;11524;50.846;4.326;2023-06-10T11:48:09;7.05;;;6.32;;
22713;SDS011;11524;50.846;4.326;2023-06-10T11:50:35;7.30;;;6.63;;
22713;SDS011;11524;50.846;4.326;2023-06-10T11:53:02;8.77;;;6.57;;
22713;SDS011;11524;50.846;4.326;2023-06-10T11:58:11;6.70;;;5.70;;
22713;SDS011;11524;50.846;4.326;2023-06-10T12:00:47;8.63;;;6.30;;
22713;SDS011;11524;50.846;4.326;2023-06-10T12:03:14;11.43;;;6.50;;
22713;SDS011;11524;50.846;4.326;2023-06-10T12:05:40;7.53;;;6.35;;
22713;SDS011;11524;50.846;4.326;2023-06-10T12:08:29;7.05;;;6.35;;
22713;SDS011;11524;50.846;4.326;2023-06-10T12:10:55;6.80;;;6.10;;
22713;SDS011;11524;50.846;4.326;2023-06-10T12:13:22;6.80;;;6.20;;
22713;SDS011;11524;50.846;4.326;2023-06-10T12:15:49;7.80;;;7.05;;
22713;SDS011;11524;50.846;4.326;2023-06-10T12:18:15;7.45;;;6.75;;
22713;SDS011;11524;50.846;4.326;2023-06-10T12:20:45;10.30;;;9.18;;
22713;SDS011;11524;50.846;4.326;2023-06-10T12:23:11;9.95;;;8.90;;
22713;SDS011;11524;50.846;4.326;2023-06-10T12:25:38;10.25;;;8.52;;
22713;SDS011;11524;50.846;4.326;2023-06-10T12:28:04;8.93;;;8.07;;
22713;SDS011;11524;50.846;4.326;2023-06-10T12:30:31;10.93;;;8.38;;
22713;SDS011;11524;50.846;4.326;2023-06-10T12:32:58;9.25;;;8.25;;
22713;SDS011;11524;50.846;4.326;2023-06-10T12:35:24;9.63;;;8.50;;
22713;SDS011;11524;50.846;4.326;2023-06-10T12:37:55;9.50;;;8.60;;
22713;SDS011;11524;50.846;4.326;2023-06-10T12:40:28;9.13;;;8.27;;
22713;SDS011;11524;50.846;4.326;2023-06-10T12:43:05;10.43;;;8.57;;
22713;SDS011;11524;50.846;4.326;2023-06-10T12:45:35;9.93;;;8.65;;
22713;SDS011;11524;50.846;4.326;2023-06-10T12:48:08;10.00;;;8.35;;
22713;SDS011;11524;50.846;4.326;2023-06-10T12:50:35;9.98;;;9.02;;
22713;SDS011;11524;50.846;4.326;2023-06-10T12:53:04;10.00;;;9.00;;
22713;SDS011;11524;50.846;4.326;2023-06-10T12:55:30;10.18;;;9.13;;
22713;SDS011;11524;50.846;4.326;2023-06-10T12:57:57;10.55;;;8.50;;
22713;SDS011;11524;50.846;4.326;2023-06-10T13:00:23;10.15;;;9.13;;
22713;SDS011;11524;50.846;4.326;2023-06-10T13:02:55;9.65;;;8.75;;
22713;SDS011;11524;50.846;4.326;2023-06-10T13:05:32;10.82;;;9.73;;
22713;SDS011;11524;50.846;4.326;2023-06-10T13:07:59;11.32;;;10.23;;
22713;SDS011;11524;50.846;4.326;2023-06-10T13:10:24;12.23;;;9.90;;
22713;SDS011;11524;50.846;4.326;2023-06-10T13:12:50;11.02;;;9.85;;
22713;SDS011;11524;50.846;4.326;2023-06-10T13:32:22;11.13;;;9.95;;
22713;SDS011;11524;50.846;4.326;2023-06-10T13:34:58;10.88;;;9.02;;
22713;SDS011;11524;50.846;4.326;2023-06-10T13:37:26;10.70;;;9.57;;
22713;SDS011;11524;50.846;4.326;2023-06-10T13:39:52;10.15;;;9.00;;
22713;SDS011;11524;50.846;4.326;2023-06-10T13:42:21;10.63;;;9.63;;
22713;SDS011;11524;50.846;4.326;2023-06-10T13:55:17;13.52;;;9.25;;
22713;SDS011;11524;50.846;4.326;2023-06-10T13:57:49;12.07;;;9.40;;
22713;SDS011;11524;50.846;4.326;2023-06-10T14:00:29;12.60;;;8.90;;
22713;SDS011;11524;50.846;4.326;2023-06-10T14:03:06;10.23;;;9.10;;
22713;SDS011;11524;50.846;4.326;2023-06-10T14:05:34;11.30;;;8.75;;
22713;SDS011;11524;50.846;4.326;2023-06-10T14:08:06;11.45;;;9.30;;
22713;SDS011;11524;50.846;4.326;2023-06-10T14:10:32;15.02;;;8.75;;
22713;SDS011;11524;50.846;4.326;2023-06-10T14:12:58;12.77;;;9.02;;
22713;SDS011;11524;50.846;4.326;2023-06-10T14:15:25;9.95;;;8.75;;
22713;SDS011;11524;50.846;4.326;2023-06-10T14:17:51;14.63;;;9.00;;
22713;SDS011;11524;50.846;4.326;2023-06-10T14:20:16;10.27;;;8.40;;
22713;SDS011;11524;50.846;4.326;2023-06-10T14:22:42;11.57;;;8.52;;
22713;SDS011;11524;50.846;4.326;2023-06-10T14:25:29;12.00;;;9.10;;
22713;SDS011;11524;50.846;4.326;2023-06-10T14:38:47;11.55;;;8.07;;
22713;SDS011;11524;50.846;4.326;2023-06-10T14:41:43;10.77;;;7.93;;
22713;SDS011;11524;50.846;4.326;2023-06-10T14:44:32;8.73;;;7.90;;
22713;SDS011;11524;50.846;4.326;2023-06-10T14:50:20;9.48;;;7.82;;
22713;SDS011;11524;50.846;4.326;2023-06-10T14:56:24;8.73;;;7.75;;
22713;SDS011;11524;50.846;4.326;2023-06-10T15:03:11;9.38;;;7.68;;
22713;SDS011;11524;50.846;4.326;2023-06-10T15:05:37;10.55;;;7.90;;
22713;SDS011;11524;50.846;4.326;2023-06-10T15:08:34;9.75;;;7.63;;
22713;SDS011;11524;50.846;4.326;2023-06-10T15:14:06;8.07;;;7.30;;
22713;SDS011;11524;50.846;4.326;2023-06-10T15:16:31;11.40;;;7.78;;
22713;SDS011;11524;50.846;4.326;2023-06-10T15:18:57;8.93;;;7.50;;
22713;SDS011;11524;50.846;4.326;2023-06-10T15:21:22;9.15;;;7.68;;
22713;SDS011;11524;50.846;4.326;2023-06-10T15:23:48;8.68;;;7.85;;
22713;SDS011;11524;50.846;4.326;2023-06-10T15:26:14;8.45;;;7.63;;
22713;SDS011;11524;50.846;4.326;2023-06-10T15:28:40;12.38;;;7.63;;
22713;SDS011;11524;50.846;4.326;2023-06-10T15:31:05;7.90;;;7.10;;
22713;SDS011;11524;50.846;4.326;2023-06-10T15:33:32;7.93;;;6.80;;
22713;SDS011;11524;50.846;4.326;2023-06-10T15:35:58;7.97;;;7.20;;
22713;SDS011;11524;50.846;4.326;2023-06-10T15:38:24;9.90;;;7.20;;
22713;SDS011;11524;50.846;4.326;2023-06-10T15:40:49;8.95;;;7.28;;
22713;SDS011;11524;50.846;4.326;2023-06-10T15:43:15;10.15;;;6.82;;
22713;SDS011;11524;50.846;4.326;2023-06-10T15:45:41;11.10;;;7.55;;
22713;SDS011;11524;50.846;4.326;2023-06-10T15:48:06;8.30;;;6.80;;
22713;SDS011;11524;50.846;4.326;2023-06-10T15:50:32;9.65;;;7.10;;
22713;SDS011;11524;50.846;4.326;2023-06-10T15:52:57;9.70;;;7.00;;
22713;SDS011;11524;50.846;4.326;2023-06-10T15:55:23;9.10;;;7.22;;
22713;SDS011;11524;50.846;4.326;2023-06-10T15:57:50;9.90;;;7.63;;
22713;SDS011;11524;50.846;4.326;2023-06-10T16:00:16;9.43;;;7.25;;
22713;SDS011;11524;50.846;4.326;2023-06-10T16:02:42;7.75;;;7.00;;